Time;durP1;ratioP1;P1;durP2;ratioP2;P2;SDS_P1;SDS_P2;PMS_P1;PMS_P2;Temp;Humidity;BMP_temperature;BMP_pressure;BME280_temperature;BME280_humidity;BME280_pressure;Samples;Min_cycle;Max_cycle;Signal;HPM_P1;HPM_P2
2022/04/16 00:02:02;;;;;;;3.20;2.80;;;;;;;;;;5004936;28;20189;-86
2022/04/16 00:05:06;;;;;;;2.87;2.57;;;;;;;;;;5016444;28;20178;-86
2022/04/16 00:08:10;;;;;;;5.43;3.00;;;;;;;;;;4974133;28;20202;-86
2022/04/16 00:11:14;;;;;;;4.33;2.70;;;;;;;;;;4991195;28;20201;-86
2022/04/16 00:14:19;;;;;;;3.13;2.83;;;;;;;;;;4993775;28;20174;-87
2022/04/16 00:17:23;;;;;;;3.40;2.93;;;;;;;;;;5004474;28;20197;-86
2022/04/16 00:20:28;;;;;;;4.03;2.80;;;;;;;;;;5004515;28;20213;-86
2022/04/16 00:23:31;;;;;;;2.80;2.60;;;;;;;;;;4974159;28;20210;-87
2022/04/16 00:26:40;;;;;;;3.13;2.40;;;;;;;;;;4974934;28;20650;-86
2022/04/16 00:29:46;;;;;;;3.37;2.60;;;;;;;;;;4996114;28;20218;-86
2022/04/16 00:32:54;;;;;;;3.83;2.90;;;;;;;;;;4973852;28;20178;-86
2022/04/16 00:35:58;;;;;;;3.10;2.60;;;;;;;;;;4988003;28;20198;-86
2022/04/16 00:39:03;;;;;;;3.53;2.97;;;;;;;;;;4995041;28;20221;-86
2022/04/16 00:42:07;;;;;;;3.43;2.93;;;;;;;;;;5009919;28;20197;-86
2022/04/16 00:45:13;;;;;;;3.57;2.90;;;;;;;;;;5008175;28;20197;-85
2022/04/16 00:48:17;;;;;;;4.57;3.00;;;;;;;;;;5008412;28;20205;-85
2022/04/16 00:51:21;;;;;;;4.50;3.27;;;;;;;;;;4997732;28;20205;-86
2022/04/16 00:54:26;;;;;;;6.87;3.20;;;;;;;;;;5000626;28;20190;-86
2022/04/16 00:57:30;;;;;;;3.60;2.97;;;;;;;;;;4987806;28;20190;-86
2022/04/16 01:00:35;;;;;;;3.80;3.10;;;;;;;;;;5007565;28;20182;-86
2022/04/16 01:03:43;;;;;;;3.80;3.07;;;;;;;;;;5008839;28;20213;-86
2022/04/16 01:06:49;;;;;;;3.40;3.10;;;;;;;;;;4994459;28;20190;-86
2022/04/16 01:09:53;;;;;;;4.20;3.10;;;;;;;;;;4984366;28;20688;-86
2022/04/16 01:13:05;;;;;;;5.90;3.10;;;;;;;;;;4988710;28;20178;-86
2022/04/16 01:16:09;;;;;;;3.80;3.40;;;;;;;;;;4996759;28;20197;-86
2022/04/16 01:19:14;;;;;;;4.63;3.60;;;;;;;;;;4997021;28;20233;-86
2022/04/16 01:22:20;;;;;;;3.53;3.00;;;;;;;;;;4996577;28;20206;-86
2022/04/16 01:25:27;;;;;;;4.63;3.57;;;;;;;;;;5008121;28;20178;-86
2022/04/16 01:28:31;;;;;;;4.53;3.37;;;;;;;;;;4996999;28;20572;-86
2022/04/16 01:31:35;;;;;;;4.27;3.47;;;;;;;;;;5008476;28;20181;-86
2022/04/16 01:34:40;;;;;;;3.97;3.33;;;;;;;;;;4997496;28;20177;-86
2022/04/16 01:37:44;;;;;;;4.53;3.37;;;;;;;;;;4996116;28;20193;-86
2022/04/16 01:40:48;;;;;;;4.50;3.80;;;;;;;;;;4996932;28;20181;-87
2022/04/16 01:43:53;;;;;;;4.40;3.47;;;;;;;;;;4997173;28;20206;-86
2022/04/16 01:46:57;;;;;;;3.67;3.27;;;;;;;;;;4996288;28;20178;-86
2022/04/16 01:50:03;;;;;;;4.17;3.27;;;;;;;;;;5012320;28;20221;-86
2022/04/16 01:53:07;;;;;;;5.00;3.63;;;;;;;;;;4988175;28;20186;-86
2022/04/16 01:56:12;;;;;;;4.53;3.33;;;;;;;;;;4989038;28;20517;-86
2022/04/16 01:59:16;;;;;;;4.43;3.70;;;;;;;;;;4989184;28;20221;-86
2022/04/16 02:02:20;;;;;;;4.40;3.63;;;;;;;;;;4987882;28;20182;-86
2022/04/16 02:05:24;;;;;;;5.93;3.90;;;;;;;;;;4989410;28;20193;-86
2022/04/16 02:08:29;;;;;;;4.90;3.27;;;;;;;;;;4999343;28;20222;-86
2022/04/16 02:11:33;;;;;;;4.23;3.70;;;;;;;;;;4977045;28;20179;-86
2022/04/16 02:14:37;;;;;;;4.20;3.70;;;;;;;;;;4986532;28;20185;-86
2022/04/16 02:17:42;;;;;;;4.40;3.80;;;;;;;;;;4996322;28;20186;-86
2022/04/16 02:20:46;;;;;;;4.97;3.53;;;;;;;;;;5007607;28;20173;-85
2022/04/16 02:23:51;;;;;;;3.33;2.90;;;;;;;;;;4998868;28;20214;-86
2022/04/16 02:26:55;;;;;;;5.57;4.10;;;;;;;;;;4988277;28;20179;-86
2022/04/16 02:30:09;;;;;;;4.40;3.43;;;;;;;;;;4992770;28;20217;-86
2022/04/16 02:33:13;;;;;;;4.20;3.30;;;;;;;;;;5018628;28;20185;-86
2022/04/16 02:36:19;;;;;;;4.60;3.27;;;;;;;;;;5008665;28;20177;-86
2022/04/16 02:39:23;;;;;;;4.60;3.80;;;;;;;;;;5007426;28;20217;-86
2022/04/16 02:42:28;;;;;;;4.50;3.60;;;;;;;;;;5007402;28;20197;-86
2022/04/16 02:48:56;;;;;;;4.23;3.37;;;;;;;;;;4998698;28;20217;-86
2022/04/16 02:52:00;;;;;;;4.83;3.50;;;;;;;;;;4992713;28;20190;-86
2022/04/16 02:55:04;;;;;;;4.90;4.20;;;;;;;;;;4998835;28;20186;-87
2022/04/16 02:58:08;;;;;;;5.10;4.20;;;;;;;;;;4995710;28;20181;-86
2022/04/16 03:01:14;;;;;;;4.47;3.80;;;;;;;;;;4987595;28;20194;-86
2022/04/16 03:04:18;;;;;;;5.00;3.83;;;;;;;;;;4987468;28;20222;-86
2022/04/16 03:07:22;;;;;;;4.40;3.80;;;;;;;;;;4988058;28;20200;-86
2022/04/16 03:10:26;;;;;;;4.80;4.00;;;;;;;;;;4976166;28;20708;-86
2022/04/16 03:13:34;;;;;;;5.37;3.97;;;;;;;;;;4987902;28;20178;-86
2022/04/16 03:20:05;;;;;;;5.00;4.00;;;;;;;;;;5003901;28;20237;-87
2022/04/16 03:23:10;;;;;;;5.43;3.87;;;;;;;;;;5015392;28;20225;-87
2022/04/16 03:26:15;;;;;;;4.57;3.67;;;;;;;;;;5005566;28;20189;-86
2022/04/16 03:29:19;;;;;;;5.77;3.90;;;;;;;;;;4993904;28;20225;-87
2022/04/16 03:32:23;;;;;;;4.53;3.90;;;;;;;;;;5005937;28;20197;-87
2022/04/16 03:35:27;;;;;;;4.90;3.97;;;;;;;;;;4994245;28;20660;-87
2022/04/16 03:38:31;;;;;;;3.93;3.53;;;;;;;;;;5015855;28;20221;-86
2022/04/16 03:41:35;;;;;;;5.10;4.07;;;;;;;;;;5016469;28;20197;-86
2022/04/16 03:44:39;;;;;;;6.40;4.47;;;;;;;;;;5016585;28;20217;-86
2022/04/16 03:47:43;;;;;;;5.23;4.17;;;;;;;;;;5005236;28;20193;-86
2022/04/16 03:50:47;;;;;;;6.67;4.10;;;;;;;;;;4993795;28;20201;-86
2022/04/16 03:53:52;;;;;;;5.83;4.00;;;;;;;;;;5005083;28;20182;-86
2022/04/16 04:00:19;;;;;;;6.13;3.93;;;;;;;;;;5005084;28;20229;-86
2022/04/16 04:03:24;;;;;;;5.03;3.77;;;;;;;;;;4994062;28;20209;-86
2022/04/16 04:06:28;;;;;;;5.03;3.93;;;;;;;;;;5005196;28;20514;-86
2022/04/16 04:09:32;;;;;;;5.23;4.30;;;;;;;;;;4974310;28;20218;-86
2022/04/16 04:12:36;;;;;;;5.23;4.30;;;;;;;;;;5003458;28;20201;-86
2022/04/16 04:15:41;;;;;;;5.97;3.93;;;;;;;;;;5004995;28;20174;-86
2022/04/16 04:18:45;;;;;;;4.77;4.27;;;;;;;;;;4992999;28;20228;-86
2022/04/16 04:21:49;;;;;;;7.63;4.50;;;;;;;;;;5005044;28;20186;-87
2022/04/16 04:24:53;;;;;;;5.60;4.37;;;;;;;;;;5004790;28;20209;-86
2022/04/16 04:27:57;;;;;;;6.43;4.00;;;;;;;;;;4984998;28;20190;-86
2022/04/16 04:31:01;;;;;;;4.97;4.17;;;;;;;;;;4982318;28;20540;-87
2022/04/16 04:34:05;;;;;;;5.60;4.30;;;;;;;;;;4985109;28;20182;-87
2022/04/16 04:37:09;;;;;;;6.17;4.23;;;;;;;;;;4996217;28;20186;-86
2022/04/16 04:40:14;;;;;;;5.13;3.90;;;;;;;;;;4989240;28;20221;-86
2022/04/16 04:43:18;;;;;;;5.53;4.27;;;;;;;;;;4990782;28;20190;-86
2022/04/16 04:46:21;;;;;;;6.07;4.50;;;;;;;;;;5006875;28;20174;-86
2022/04/16 04:49:25;;;;;;;6.03;4.27;;;;;;;;;;4995256;28;20213;-86
2022/04/16 04:52:30;;;;;;;4.40;4.00;;;;;;;;;;5006737;28;20193;-86
2022/04/16 04:55:34;;;;;;;4.37;3.93;;;;;;;;;;4996236;28;20178;-86
2022/04/16 04:58:38;;;;;;;5.40;3.80;;;;;;;;;;4997909;28;20216;-86
2022/04/16 05:01:42;;;;;;;6.77;4.30;;;;;;;;;;5008123;28;20186;-86
2022/04/16 05:04:47;;;;;;;4.93;4.20;;;;;;;;;;4995613;28;20316;-86
2022/04/16 05:07:51;;;;;;;5.07;4.20;;;;;;;;;;4994809;28;20205;-86
2022/04/16 05:10:55;;;;;;;5.17;4.03;;;;;;;;;;5006211;28;20177;-86
2022/04/16 05:13:59;;;;;;;4.80;4.00;;;;;;;;;;5006014;28;20186;-86
2022/04/16 05:17:04;;;;;;;11.30;7.97;;;;;;;;;;5002841;28;20193;-86
2022/04/16 05:20:09;;;;;;;11.33;8.13;;;;;;;;;;5018217;28;20221;-86
2022/04/16 05:23:13;;;;;;;11.70;8.23;;;;;;;;;;4988925;28;20629;-85
2022/04/16 05:26:17;;;;;;;14.70;5.23;;;;;;;;;;5005858;28;20190;-86
2022/04/16 05:29:23;;;;;;;6.33;4.90;;;;;;;;;;4976844;28;20713;-86
2022/04/16 05:32:35;;;;;;;5.57;4.70;;;;;;;;;;4977277;28;20182;-86
2022/04/16 05:35:40;;;;;;;10.57;4.70;;;;;;;;;;4976723;28;20186;-86
2022/04/16 05:38:44;;;;;;;5.03;4.30;;;;;;;;;;5017959;28;20217;-86
2022/04/16 05:41:48;;;;;;;5.70;4.53;;;;;;;;;;4995252;28;20197;-86
2022/04/16 05:44:52;;;;;;;6.33;4.63;;;;;;;;;;5005805;28;20213;-86
2022/04/16 05:47:57;;;;;;;4.80;4.30;;;;;;;;;;4997193;28;20193;-86
2022/04/16 05:51:02;;;;;;;4.57;4.00;;;;;;;;;;4990723;28;20193;-87
2022/04/16 05:54:06;;;;;;;5.03;4.00;;;;;;;;;;5006995;28;20185;-87
2022/04/16 05:57:12;;;;;;;7.00;3.77;;;;;;;;;;5017355;28;20197;-87
2022/04/16 06:00:17;;;;;;;5.43;4.23;;;;;;;;;;5018650;28;20221;-87
2022/04/16 06:03:21;;;;;;;4.77;4.10;;;;;;;;;;4995642;28;20205;-86
2022/04/16 06:06:26;;;;;;;5.40;4.37;;;;;;;;;;5006502;28;20569;-85
2022/04/16 06:09:31;;;;;;;5.57;4.43;;;;;;;;;;4987229;28;20218;-86
2022/04/16 06:12:35;;;;;;;6.47;4.47;;;;;;;;;;4976735;28;20201;-87
2022/04/16 06:15:43;;;;;;;4.77;3.90;;;;;;;;;;4998872;28;20196;-86
2022/04/16 06:18:47;;;;;;;5.90;4.40;;;;;;;;;;5022638;28;20224;-86
2022/04/16 06:21:51;;;;;;;5.57;4.27;;;;;;;;;;5007901;28;20193;-87
2022/04/16 06:24:56;;;;;;;4.57;3.90;;;;;;;;;;4995911;28;20209;-86
2022/04/16 06:28:00;;;;;;;4.87;3.93;;;;;;;;;;4992200;28;20201;-85
2022/04/16 06:31:04;;;;;;;6.13;4.50;;;;;;;;;;4993943;28;20194;-85
2022/04/16 06:34:09;;;;;;;11.37;5.20;;;;;;;;;;4971914;28;20193;-85
2022/04/16 06:37:12;;;;;;;9.30;4.53;;;;;;;;;;5012733;28;20557;-84
2022/04/16 06:40:17;;;;;;;5.33;4.10;;;;;;;;;;5002080;28;20212;-83
2022/04/16 06:43:21;;;;;;;8.27;4.23;;;;;;;;;;5003135;28;20181;-83
2022/04/16 06:46:28;;;;;;;7.40;4.30;;;;;;;;;;5002611;28;20526;-83
2022/04/16 06:49:32;;;;;;;4.77;4.13;;;;;;;;;;4991369;28;20553;-82
2022/04/16 06:52:37;;;;;;;6.67;4.40;;;;;;;;;;5002408;28;20182;-81
2022/04/16 06:55:40;;;;;;;5.03;4.20;;;;;;;;;;5002124;28;20628;-82
2022/04/16 06:58:45;;;;;;;5.03;4.43;;;;;;;;;;5002234;28;20688;-82
2022/04/16 07:01:49;;;;;;;6.27;4.53;;;;;;;;;;5013148;28;20181;-82
2022/04/16 07:04:54;;;;;;;5.73;4.40;;;;;;;;;;5013419;28;20213;-83
2022/04/16 07:07:58;;;;;;;7.93;5.20;;;;;;;;;;4991435;28;20182;-82
2022/04/16 07:11:02;;;;;;;6.07;4.93;;;;;;;;;;5001383;28;20545;-82
2022/04/16 07:14:06;;;;;;;6.20;5.07;;;;;;;;;;5002321;28;20185;-82
2022/04/16 07:17:10;;;;;;;5.73;4.70;;;;;;;;;;4996606;28;20189;-82
2022/04/16 07:20:14;;;;;;;6.17;4.73;;;;;;;;;;4986821;28;20217;-82
2022/04/16 07:23:18;;;;;;;7.07;5.33;;;;;;;;;;4991212;28;20518;-82
2022/04/16 07:26:23;;;;;;;6.63;4.90;;;;;;;;;;4990493;28;20668;-82
2022/04/16 07:29:28;;;;;;;7.43;4.97;;;;;;;;;;4995322;28;20221;-82
2022/04/16 07:32:32;;;;;;;5.23;4.33;;;;;;;;;;4990650;28;20189;-82
2022/04/16 07:35:38;;;;;;;5.60;4.80;;;;;;;;;;5001666;28;20185;-82
2022/04/16 07:38:43;;;;;;;8.00;4.73;;;;;;;;;;5000330;28;20228;-81
2022/04/16 07:41:49;;;;;;;6.10;5.10;;;;;;;;;;4993334;28;20186;-82
2022/04/16 07:44:54;;;;;;;5.70;4.33;;;;;;;;;;4993441;28;20230;-82
2022/04/16 07:47:58;;;;;;;5.87;4.67;;;;;;;;;;4975240;28;20646;-82
2022/04/16 07:51:03;;;;;;;6.73;4.83;;;;;;;;;;4992906;28;20186;-82
2022/04/16 07:54:08;;;;;;;5.50;4.43;;;;;;;;;;5010447;28;20190;-82
2022/04/16 07:57:13;;;;;;;5.03;4.23;;;;;;;;;;4999576;28;20661;-82
2022/04/16 08:00:17;;;;;;;3.60;3.30;;;;;;;;;;5012755;28;20213;-82
2022/04/16 08:03:22;;;;;;;3.97;3.37;;;;;;;;;;4984618;28;20194;-85
2022/04/16 08:06:26;;;;;;;4.17;3.17;;;;;;;;;;5013806;28;20206;-84
2022/04/16 08:09:30;;;;;;;4.07;3.30;;;;;;;;;;4986553;28;20225;-85
2022/04/16 08:12:35;;;;;;;3.63;2.87;;;;;;;;;;5005886;28;20197;-84
2022/04/16 08:15:39;;;;;;;4.43;3.13;;;;;;;;;;4995810;28;20178;-84
2022/04/16 08:18:43;;;;;;;3.27;2.97;;;;;;;;;;4995280;28;20217;-85
2022/04/16 08:21:47;;;;;;;3.70;2.77;;;;;;;;;;5016178;28;20185;-86
2022/04/16 08:28:19;;;;;;;3.23;2.93;;;;;;;;;;5008102;28;20668;-85
2022/04/16 08:31:23;;;;;;;3.33;2.83;;;;;;;;;;4997046;28;20190;-85
2022/04/16 08:34:27;;;;;;;3.40;3.10;;;;;;;;;;4986532;28;20205;-85
2022/04/16 08:37:31;;;;;;;3.40;3.00;;;;;;;;;;4998368;28;20549;-85
2022/04/16 08:40:36;;;;;;;2.80;2.50;;;;;;;;;;4994167;28;20177;-86
2022/04/16 08:43:43;;;;;;;3.40;2.70;;;;;;;;;;5004824;28;20182;-87
2022/04/16 08:46:48;;;;;;;3.40;2.77;;;;;;;;;;4993944;28;20205;-86
2022/04/16 08:49:52;;;;;;;3.07;2.77;;;;;;;;;;5004136;28;20561;-86
2022/04/16 08:52:57;;;;;;;3.40;2.70;;;;;;;;;;4984929;28;20526;-87
2022/04/16 08:56:01;;;;;;;19.63;12.83;;;;;;;;;;5002784;28;20533;-86
2022/04/16 08:59:05;;;;;;;3.70;3.30;;;;;;;;;;4984951;28;20225;-87
2022/04/16 09:02:10;;;;;;;3.43;3.00;;;;;;;;;;4980598;28;20190;-85
2022/04/16 09:05:13;;;;;;;3.87;2.87;;;;;;;;;;4984381;28;20226;-86
2022/04/16 09:08:27;;;;;;;3.40;3.10;;;;;;;;;;4991074;28;20197;-86
2022/04/16 09:11:31;;;;;;;3.43;3.10;;;;;;;;;;5000791;28;20652;-86
2022/04/16 09:14:36;;;;;;;4.60;3.50;;;;;;;;;;5003916;28;20186;-86
2022/04/16 09:17:41;;;;;;;4.57;3.23;;;;;;;;;;4986436;28;20194;-86
2022/04/16 09:20:45;;;;;;;3.87;2.87;;;;;;;;;;4997179;28;20201;-87
2022/04/16 09:23:52;;;;;;;4.93;3.03;;;;;;;;;;4975206;28;20182;-87
2022/04/16 09:26:59;;;;;;;4.00;3.07;;;;;;;;;;4993904;28;20205;-86
2022/04/16 09:30:04;;;;;;;5.10;3.93;;;;;;;;;;4994871;28;20220;-87
2022/04/16 09:33:08;;;;;;;4.57;3.67;;;;;;;;;;5017240;28;20185;-87
2022/04/16 09:36:22;;;;;;;5.23;3.40;;;;;;;;;;4994133;28;20564;-87
2022/04/16 09:39:27;;;;;;;5.37;3.70;;;;;;;;;;4998833;28;20221;-86
2022/04/16 09:42:31;;;;;;;6.17;3.67;;;;;;;;;;4990096;28;20189;-86
2022/04/16 09:45:41;;;;;;;4.47;3.20;;;;;;;;;;4989900;28;20677;-86
2022/04/16 09:48:45;;;;;;;5.27;3.63;;;;;;;;;;4992905;28;20213;-86
2022/04/16 09:51:49;;;;;;;6.57;3.30;;;;;;;;;;5001111;28;20193;-86
2022/04/16 09:54:59;;;;;;;5.40;3.27;;;;;;;;;;5007609;28;20197;-86
2022/04/16 09:58:05;;;;;;;6.83;3.40;;;;;;;;;;4996797;28;20198;-86
2022/04/16 10:01:10;;;;;;;4.90;3.20;;;;;;;;;;4993561;28;20190;-87
2022/04/16 10:04:16;;;;;;;6.43;3.83;;;;;;;;;;4996257;28;20194;-87
2022/04/16 10:07:20;;;;;;;4.50;3.03;;;;;;;;;;5000540;28;20676;-87
2022/04/16 10:10:31;;;;;;;3.43;2.93;;;;;;;;;;4993104;28;20221;-86
2022/04/16 10:13:40;;;;;;;6.37;2.97;;;;;;;;;;5004648;28;20537;-86
2022/04/16 10:17:01;;;;;;;3.93;3.13;;;;;;;;;;5004721;28;20518;-87
2022/04/16 10:20:10;;;;;;;7.40;3.83;;;;;;;;;;4992927;28;20225;-86
2022/04/16 10:23:27;;;;;;;5.20;4.30;;;;;;;;;;4988551;28;20186;-87
2022/04/16 10:26:39;;;;;;;4.83;4.30;;;;;;;;;;5016342;28;20218;-87
2022/04/16 10:29:46;;;;;;;7.47;4.23;;;;;;;;;;4993726;28;20217;-87
2022/04/16 10:32:50;;;;;;;6.47;5.20;;;;;;;;;;5015748;28;20189;-87
2022/04/16 10:36:03;;;;;;;6.03;5.17;;;;;;;;;;5004571;28;20533;-87
2022/04/16 10:39:15;;;;;;;4.67;3.50;;;;;;;;;;5004759;28;20692;-87
2022/04/16 10:42:32;;;;;;;6.77;4.97;;;;;;;;;;5015727;28;20174;-87
2022/04/16 10:45:36;;;;;;;6.30;4.63;;;;;;;;;;4991809;28;20214;-87
2022/04/16 10:48:41;;;;;;;6.70;4.83;;;;;;;;;;5005010;28;20220;-87
2022/04/16 10:51:47;;;;;;;6.57;4.80;;;;;;;;;;5003760;28;20182;-87
2022/04/16 10:55:01;;;;;;;7.03;5.60;;;;;;;;;;4983649;28;20202;-87
2022/04/16 10:58:06;;;;;;;7.33;5.50;;;;;;;;;;4984999;28;20186;-87
2022/04/16 11:01:12;;;;;;;6.93;5.20;;;;;;;;;;4992155;28;20177;-87
2022/04/16 11:04:16;;;;;;;7.10;5.83;;;;;;;;;;4994570;28;20189;-88
2022/04/16 11:07:23;;;;;;;8.13;5.87;;;;;;;;;;4983151;28;20210;-87
2022/04/16 11:10:28;;;;;;;7.20;6.03;;;;;;;;;;5005049;28;20217;-86
2022/04/16 11:13:34;;;;;;;8.97;5.87;;;;;;;;;;5006392;28;20185;-87
2022/04/16 11:16:45;;;;;;;8.27;5.90;;;;;;;;;;5005852;28;20178;-87
2022/04/16 11:20:00;;;;;;;7.67;5.87;;;;;;;;;;5005563;28;20225;-87
2022/04/16 11:23:10;;;;;;;8.83;5.70;;;;;;;;;;4996587;28;20197;-87
2022/04/16 11:36:25;;;;;;;5.70;4.80;;;;;;;;;;4999545;28;20186;-85
2022/04/16 11:39:31;;;;;;;11.70;5.07;;;;;;;;;;4975608;28;20217;-86
2022/04/16 11:42:35;;;;;;;8.63;4.80;;;;;;;;;;5001980;28;20208;-85
2022/04/16 11:45:45;;;;;;;5.57;4.97;;;;;;;;;;5006111;28;20553;-88
2022/04/16 11:48:50;;;;;;;6.40;4.77;;;;;;;;;;5006271;28;20217;-87
2022/04/16 11:51:54;;;;;;;5.33;3.80;;;;;;;;;;5006069;28;20185;-86
2022/04/16 11:55:10;;;;;;;5.10;3.97;;;;;;;;;;4994726;28;20537;-86
2022/04/16 11:58:14;;;;;;;6.40;4.07;;;;;;;;;;4997966;28;20182;-85
2022/04/16 12:01:22;;;;;;;6.47;4.57;;;;;;;;;;4994344;28;20190;-88
2022/04/16 12:04:38;;;;;;;4.80;4.10;;;;;;;;;;4974875;28;20186;-87
2022/04/16 12:07:48;;;;;;;4.70;3.77;;;;;;;;;;4974673;28;20222;-85
2022/04/16 12:10:53;;;;;;;4.80;3.77;;;;;;;;;;5000391;28;20285;-87
2022/04/16 12:13:58;;;;;;;4.07;3.20;;;;;;;;;;4985192;28;20548;-87
2022/04/16 12:17:02;;;;;;;3.50;3.20;;;;;;;;;;4985679;28;20175;-85
2022/04/16 12:20:11;;;;;;;7.47;4.07;;;;;;;;;;4986312;28;20226;-86
2022/04/16 12:23:20;;;;;;;4.23;3.80;;;;;;;;;;4997035;28;20201;-85
2022/04/16 12:26:24;;;;;;;3.73;3.20;;;;;;;;;;5004808;28;20225;-85
2022/04/16 12:29:30;;;;;;;8.47;3.93;;;;;;;;;;5004636;28;20217;-85
2022/04/16 12:32:34;;;;;;;5.33;3.87;;;;;;;;;;5016276;28;20209;-86
2022/04/16 12:35:40;;;;;;;4.00;3.33;;;;;;;;;;4993108;28;20186;-85
2022/04/16 12:38:44;;;;;;;3.60;3.13;;;;;;;;;;5004742;28;20557;-86
2022/04/16 12:41:50;;;;;;;3.97;3.57;;;;;;;;;;4992962;28;20181;-85
2022/04/16 12:44:54;;;;;;;4.03;3.30;;;;;;;;;;4985514;28;20182;-86
2022/04/16 12:47:59;;;;;;;4.17;3.50;;;;;;;;;;5002743;28;20218;-86
2022/04/16 12:51:03;;;;;;;5.27;3.57;;;;;;;;;;4992866;28;20664;-86
2022/04/16 12:54:07;;;;;;;8.30;5.83;;;;;;;;;;5003747;28;20181;-86
2022/04/16 12:57:11;;;;;;;3.77;3.30;;;;;;;;;;5004288;28;20181;-86
2022/04/16 13:00:16;;;;;;;3.53;3.00;;;;;;;;;;4993293;28;20209;-86
2022/04/16 13:03:21;;;;;;;4.63;3.20;;;;;;;;;;4992715;28;20181;-86
2022/04/16 13:06:26;;;;;;;3.93;3.40;;;;;;;;;;4995421;28;20230;-87
2022/04/16 13:09:30;;;;;;;5.33;3.17;;;;;;;;;;4995688;28;20689;-86
2022/04/16 13:12:34;;;;;;;4.77;3.20;;;;;;;;;;5002237;28;20201;-86
2022/04/16 13:15:38;;;;;;;3.50;3.20;;;;;;;;;;4996890;28;20185;-85
2022/04/16 13:18:42;;;;;;;3.60;3.30;;;;;;;;;;4994930;28;20229;-86
2022/04/16 13:21:47;;;;;;;3.63;3.10;;;;;;;;;;4979405;28;20202;-85
2022/04/16 13:24:51;;;;;;;4.70;3.50;;;;;;;;;;4995112;28;20194;-85
2022/04/16 13:27:55;;;;;;;3.67;2.70;;;;;;;;;;5005184;28;20210;-86
2022/04/16 13:31:00;;;;;;;2.60;2.40;;;;;;;;;;5003361;28;20197;-85
2022/04/16 13:34:04;;;;;;;2.30;2.10;;;;;;;;;;4994880;28;20202;-86
2022/04/16 13:37:09;;;;;;;2.70;2.27;;;;;;;;;;4972783;28;20630;-85
2022/04/16 13:43:39;;;;;;;3.30;2.20;;;;;;;;;;5003538;28;20190;-87
2022/04/16 13:46:45;;;;;;;2.77;2.30;;;;;;;;;;4992221;28;20205;-86
2022/04/16 13:49:49;;;;;;;2.40;2.20;;;;;;;;;;4988905;28;20217;-86
2022/04/16 13:52:53;;;;;;;2.43;2.23;;;;;;;;;;4992131;28;20173;-86
2022/04/16 13:55:57;;;;;;;2.73;2.10;;;;;;;;;;5002971;28;20189;-87
2022/04/16 13:59:01;;;;;;;6.67;2.10;;;;;;;;;;5002806;28;20221;-86
2022/04/16 14:02:06;;;;;;;2.50;2.23;;;;;;;;;;4992155;28;20181;-86
2022/04/16 14:08:33;;;;;;;2.40;1.90;;;;;;;;;;5002913;28;20206;-87
2022/04/16 14:11:38;;;;;;;2.50;2.00;;;;;;;;;;4990207;28;20193;-86
2022/04/16 14:14:42;;;;;;;2.50;1.97;;;;;;;;;;4991180;28;20186;-86
2022/04/16 14:17:47;;;;;;;3.73;2.27;;;;;;;;;;5014181;28;20190;-85
2022/04/16 14:20:52;;;;;;;4.23;2.10;;;;;;;;;;4991406;28;20193;-86
2022/04/16 14:23:56;;;;;;;3.27;2.30;;;;;;;;;;5002755;28;20521;-86
2022/04/16 14:27:00;;;;;;;2.53;2.20;;;;;;;;;;5002656;28;20217;-86
2022/04/16 14:30:05;;;;;;;2.93;2.23;;;;;;;;;;5002333;28;20221;-86
2022/04/16 14:33:10;;;;;;;6.00;3.73;;;;;;;;;;5013409;28;20178;-86
2022/04/16 14:36:15;;;;;;;2.40;2.20;;;;;;;;;;5002549;28;20534;-86
2022/04/16 14:39:19;;;;;;;4.43;2.17;;;;;;;;;;5002249;28;20216;-86
2022/04/16 14:42:24;;;;;;;2.53;2.20;;;;;;;;;;5013985;28;20181;-86
2022/04/16 14:45:27;;;;;;;2.97;2.10;;;;;;;;;;5013795;28;20182;-85
2022/04/16 14:48:31;;;;;;;3.70;2.60;;;;;;;;;;4990986;28;20237;-85
2022/04/16 14:51:39;;;;;;;2.80;2.23;;;;;;;;;;5002340;28;20181;-86
2022/04/16 14:54:44;;;;;;;2.40;2.00;;;;;;;;;;5002250;28;20174;-86
2022/04/16 14:57:48;;;;;;;4.07;1.87;;;;;;;;;;5002335;28;20177;-86
2022/04/16 15:00:52;;;;;;;2.20;2.00;;;;;;;;;;5002536;28;20185;-85
2022/04/16 15:03:56;;;;;;;2.83;2.00;;;;;;;;;;5013691;28;20174;-86
2022/04/16 15:07:00;;;;;;;2.13;1.80;;;;;;;;;;5002025;28;20229;-85
2022/04/16 15:10:04;;;;;;;6.83;2.30;;;;;;;;;;5002443;28;20216;-86
2022/04/16 15:13:08;;;;;;;4.33;1.83;;;;;;;;;;4991110;28;20185;-86
2022/04/16 15:16:12;;;;;;;3.23;1.40;;;;;;;;;;4990948;28;20178;-86
2022/04/16 15:19:16;;;;;;;2.00;1.70;;;;;;;;;;5021767;22;21245;-85
2022/04/16 15:22:21;;;;;;;1.70;1.43;;;;;;;;;;4994180;28;20522;-86
2022/04/16 15:25:25;;;;;;;2.07;1.40;;;;;;;;;;5005483;28;20182;-85
2022/04/16 15:28:29;;;;;;;1.40;1.30;;;;;;;;;;4994690;28;20210;-85
2022/04/16 15:31:41;;;;;;;1.20;1.10;;;;;;;;;;4964311;28;20195;-85
2022/04/16 15:34:44;;;;;;;3.57;1.23;;;;;;;;;;4975135;28;20199;-86
2022/04/16 15:37:50;;;;;;;3.67;1.37;;;;;;;;;;4963578;28;20198;-86
2022/04/16 15:40:58;;;;;;;2.57;1.33;;;;;;;;;;4964523;28;20222;-85
2022/04/16 15:44:04;;;;;;;1.30;1.20;;;;;;;;;;4953353;28;20179;-84
2022/04/16 15:47:08;;;;;;;2.80;1.40;;;;;;;;;;4963444;28;20226;-84
2022/04/16 15:50:13;;;;;;;1.80;1.60;;;;;;;;;;4975902;28;20222;-87
2022/04/16 15:53:17;;;;;;;3.27;1.50;;;;;;;;;;4964854;28;20186;-84
2022/04/16 15:56:22;;;;;;;2.00;1.50;;;;;;;;;;4964741;28;20183;-85
2022/04/16 15:59:26;;;;;;;1.97;1.63;;;;;;;;;;4964048;28;20550;-84
2022/04/16 16:02:30;;;;;;;1.77;1.37;;;;;;;;;;4953297;28;20179;-85
2022/04/16 16:05:34;;;;;;;1.80;1.60;;;;;;;;;;4975749;28;20199;-85
2022/04/16 16:08:38;;;;;;;2.10;1.70;;;;;;;;;;4974563;28;20223;-84
2022/04/16 16:11:42;;;;;;;3.97;2.00;;;;;;;;;;4974505;28;20183;-86
2022/04/16 16:14:46;;;;;;;2.70;1.77;;;;;;;;;;4963905;28;20203;-85
2022/04/16 16:17:51;;;;;;;2.07;1.77;;;;;;;;;;4964720;28;20195;-84
2022/04/16 16:20:54;;;;;;;2.43;1.87;;;;;;;;;;4985663;28;20230;-85
2022/04/16 16:23:59;;;;;;;3.17;1.80;;;;;;;;;;4974228;28;20191;-84
2022/04/16 16:27:07;;;;;;;3.67;2.07;;;;;;;;;;4952272;28;20183;-86
2022/04/16 16:30:11;;;;;;;2.93;2.20;;;;;;;;;;4976318;28;20219;-86
2022/04/16 16:33:15;;;;;;;2.53;2.10;;;;;;;;;;4966481;28;20523;-86
2022/04/16 16:36:20;;;;;;;2.87;2.40;;;;;;;;;;4977592;28;20203;-84
2022/04/16 16:39:24;;;;;;;5.37;2.30;;;;;;;;;;4978485;28;20215;-85
2022/04/16 16:42:29;;;;;;;2.57;2.30;;;;;;;;;;4967762;28;20191;-85
2022/04/16 16:45:35;;;;;;;4.27;2.80;;;;;;;;;;4967090;28;20507;-86
2022/04/16 16:48:39;;;;;;;5.57;4.17;;;;;;;;;;4976892;28;20203;-86
2022/04/16 16:51:46;;;;;;;3.30;2.57;;;;;;;;;;4967061;28;20191;-85
2022/04/16 16:54:50;;;;;;;3.77;2.50;;;;;;;;;;4967399;28;20187;-86
2022/04/16 16:57:54;;;;;;;3.73;3.20;;;;;;;;;;4976969;28;20178;-86
2022/04/16 17:00:58;;;;;;;4.40;3.17;;;;;;;;;;4956194;28;20226;-86
2022/04/16 17:07:28;;;;;;;3.90;3.00;;;;;;;;;;4966490;28;20655;-84
2022/04/16 17:10:34;;;;;;;4.47;3.47;;;;;;;;;;4967093;28;20226;-86
2022/04/16 17:13:38;;;;;;;4.37;2.97;;;;;;;;;;4965598;28;20191;-84
2022/04/16 17:20:05;;;;;;;4.30;3.10;;;;;;;;;;4965198;28;20230;-88
2022/04/16 17:23:10;;;;;;;3.23;2.93;;;;;;;;;;4965512;28;20183;-85
2022/04/16 17:26:15;;;;;;;3.67;3.00;;;;;;;;;;4966171;28;20175;-85
2022/04/16 17:29:19;;;;;;;3.63;2.97;;;;;;;;;;4954312;28;20222;-86
2022/04/16 17:32:23;;;;;;;14.93;7.90;;;;;;;;;;4965431;28;20186;-87
2022/04/16 17:35:27;;;;;;;3.93;2.43;;;;;;;;;;4965462;28;20203;-85
2022/04/16 17:38:31;;;;;;;3.40;2.93;;;;;;;;;;4965990;28;20194;-87
2022/04/16 17:41:35;;;;;;;3.10;2.23;;;;;;;;;;4954196;28;20179;-86
2022/04/16 17:44:41;;;;;;;3.00;2.03;;;;;;;;;;4964969;28;20523;-86
2022/04/16 17:47:45;;;;;;;3.90;2.37;;;;;;;;;;4964359;28;20218;-85
2022/04/16 17:50:50;;;;;;;4.00;2.50;;;;;;;;;;4964256;28;20571;-86
2022/04/16 17:53:54;;;;;;;3.60;2.50;;;;;;;;;;4975343;28;20203;-85
2022/04/16 17:57:00;;;;;;;6.23;2.23;;;;;;;;;;4953182;28;20202;-86
2022/04/16 18:00:06;;;;;;;2.60;1.83;;;;;;;;;;4964363;28;20214;-86
2022/04/16 18:03:12;;;;;;;5.17;2.30;;;;;;;;;;4964795;28;20183;-85
2022/04/16 18:06:16;;;;;;;3.07;2.30;;;;;;;;;;4975374;28;20187;-85
2022/04/16 18:09:20;;;;;;;3.70;2.10;;;;;;;;;;4964276;28;20218;-86
2022/04/16 18:12:24;;;;;;;3.20;2.00;;;;;;;;;;4964787;28;20207;-85
2022/04/16 18:15:28;;;;;;;3.77;2.03;;;;;;;;;;4975165;28;20203;-86
2022/04/16 18:18:32;;;;;;;2.80;1.90;;;;;;;;;;4975288;28;20179;-86
2022/04/16 18:21:36;;;;;;;3.67;2.07;;;;;;;;;;4953259;28;20202;-85
2022/04/16 18:24:41;;;;;;;3.93;2.07;;;;;;;;;;4963791;28;20203;-85
2022/04/16 18:27:46;;;;;;;7.80;2.20;;;;;;;;;;4963947;28;20210;-86
2022/04/16 18:30:50;;;;;;;3.03;1.83;;;;;;;;;;4952527;28;20226;-86
2022/04/16 18:33:55;;;;;;;2.63;2.10;;;;;;;;;;4964269;28;20190;-85
2022/04/16 18:36:59;;;;;;;2.40;2.00;;;;;;;;;;4974939;28;20207;-85
2022/04/16 18:40:11;;;;;;;2.47;1.90;;;;;;;;;;4963877;28;20222;-85
2022/04/16 18:43:15;;;;;;;2.13;1.77;;;;;;;;;;4963926;28;20183;-85
2022/04/16 18:46:19;;;;;;;2.97;1.93;;;;;;;;;;4963812;28;20182;-86
2022/04/16 18:49:23;;;;;;;2.20;1.80;;;;;;;;;;4963643;28;20230;-86
2022/04/16 18:52:32;;;;;;;2.13;1.93;;;;;;;;;;4963266;28;20191;-86
2022/04/16 18:55:36;;;;;;;2.67;1.97;;;;;;;;;;4965270;28;20183;-86
2022/04/16 18:58:43;;;;;;;5.33;2.00;;;;;;;;;;4956631;28;20175;-86
2022/04/16 19:08:32;;;;;;;4.00;1.90;;;;;;;;;;4976378;28;20207;-86
2022/04/16 19:11:37;;;;;;;3.27;1.77;;;;;;;;;;4965159;28;20186;-86
2022/04/16 19:14:43;;;;;;;4.83;2.70;;;;;;;;;;4975690;28;20183;-86